»·PEaware :: N505TC KPHX-KOAK

N505TC :: KPHX-KOAK

FLIGHT INFORMATION

Flight Status: Arrived
Operator: Privately registered:
United States
More flights under this callsign
Pilot: David I. (28153)
Aircraft: DASSAULT AVIATION FALCON 50
(FA50)
More flights by this aircraft type
Origin: KPHX Phoenix Sky Harbor Intl
United States
Destination: KOAK Metro Oakland Intl
United States
More flights between these airports :: More routes between these airports
Route: KEENS2 HRRBR CURIV J212 DECAS PMD RGOOD EMZOH3
File this flight plan on PilotEdge
Remarks:
Altitude:
(Current/Filed)
38,000ft
Speed:
(Current/Filed)
450kts
Departed: 31-Jan-21 02:25 PM
Arrived: 31-Jan-21 04:04 PM
Distance/Time
Traveled:
560nm/1:38
Distance/Time
To Go:
Arrived

Flight Plot

Page will automatically refresh every two minutes.

Flight plan parsing failed; only flown route is shown


Map Options




Map Legend


Flown Route
Filed Route
Departure Airport
Arrival Airport
Navaid (VOR, NDB)
Fix

Horizontal Profiles

Position Reports

Time Latitude Longitude Heading Altitude Ground
Speed
31-Jan-21 13:43 33.426801 -112.023387 175 1118ft 0kts
31-Jan-21 13:44 33.426801 -112.023387 175 1118ft 0kts
31-Jan-21 13:45 33.426801 -112.023387 175 1118ft 0kts
31-Jan-21 13:46 33.426801 -112.023387 175 1118ft 0kts
31-Jan-21 13:47 33.426801 -112.023387 175 1118ft 0kts
31-Jan-21 13:48 33.426801 -112.023387 175 1118ft 0kts
31-Jan-21 13:49 33.426801 -112.023387 175 1118ft 0kts
31-Jan-21 13:50 33.426801 -112.023387 175 1118ft 0kts
31-Jan-21 13:51 33.426801 -112.023387 175 1118ft 0kts
31-Jan-21 13:52 33.426801 -112.023387 175 1118ft 0kts
31-Jan-21 13:53 33.426801 -112.023387 175 1118ft 0kts
31-Jan-21 13:54 33.426801 -112.023387 175 1118ft 0kts
31-Jan-21 13:55 33.426801 -112.023387 175 1118ft 0kts
31-Jan-21 13:56 33.426801 -112.023387 175 1118ft 0kts
31-Jan-21 13:57 33.426801 -112.023387 175 1118ft 0kts
31-Jan-21 13:58 33.426801 -112.023387 175 1118ft 0kts
31-Jan-21 13:59 33.426801 -112.023387 175 1118ft 0kts
31-Jan-21 14:00 33.426801 -112.023387 175 1118ft 0kts
31-Jan-21 14:01 33.426801 -112.023387 175 1118ft 0kts
31-Jan-21 14:02 33.426801 -112.023387 175 1118ft 0kts
31-Jan-21 14:03 33.426801 -112.023387 175 1118ft 0kts
31-Jan-21 14:04 33.426801 -112.023387 175 1118ft 0kts
31-Jan-21 14:05 33.426801 -112.023387 175 1118ft 0kts
31-Jan-21 14:06 33.426801 -112.023387 175 1118ft 0kts
31-Jan-21 14:07 33.426801 -112.023387 175 1118ft 0kts
31-Jan-21 14:08 33.426801 -112.023387 175 1118ft 0kts
31-Jan-21 14:09 33.426801 -112.023387 175 1118ft 0kts
31-Jan-21 14:10 33.426801 -112.023387 175 1118ft 0kts
31-Jan-21 14:12 33.426801 -112.023387 175 1118ft 0kts
31-Jan-21 14:13 33.426801 -112.023387 175 1118ft 0kts
31-Jan-21 14:14 33.426801 -112.023387 175 1118ft 0kts
31-Jan-21 14:15 33.426801 -112.023387 175 1118ft 0kts
31-Jan-21 14:16 33.426801 -112.023387 175 1118ft 0kts
31-Jan-21 14:17 33.426801 -112.023387 175 1118ft 0kts
31-Jan-21 14:18 33.426801 -112.023387 175 1118ft 0kts
31-Jan-21 14:19 33.426801 -112.023387 175 1118ft 0kts
31-Jan-21 14:20 33.426801 -112.023387 175 1118ft 0kts
31-Jan-21 14:21 33.426657 -112.023652 307 1118ft 0kts
31-Jan-21 14:22 33.427766 -112.025013 272 1117ft 6kts
31-Jan-21 14:23 33.427878 -112.026811 316 1117ft 0kts
31-Jan-21 14:24 33.428010 -112.026904 340 1117ft 3kts
31-Jan-21 14:24 33.428861 -112.025138 89 1117ft 49kts
31-Jan-21 14:25 33.430036 -111.977489 83 2743ft 191kts
31-Jan-21 14:27 33.433856 -111.892192 90 5884ft 236kts
31-Jan-21 14:27 33.400428 -111.846269 170 7373ft 234kts
31-Jan-21 14:28 33.353475 -111.890183 266 7985ft 246kts
31-Jan-21 14:29 33.359802 -111.969169 275 9201ft 237kts
31-Jan-21 14:31 33.372711 -112.072946 279 11674ft 328kts
31-Jan-21 14:31 33.387456 -112.172216 278 13435ft 393kts
31-Jan-21 14:32 33.407466 -112.307879 278 15776ft 427kts
31-Jan-21 14:33 33.428218 -112.449732 277 18284ft 436kts
31-Jan-21 14:34 33.441767 -112.542984 277 19902ft 435kts
31-Jan-21 14:35 33.451132 -112.673126 268 21190ft 442kts
31-Jan-21 14:36 33.452389 -112.769683 268 22506ft 422kts
31-Jan-21 14:37 33.467546 -112.878563 278 24384ft 413kts
31-Jan-21 14:38 33.492466 -113.012296 278 26389ft 409kts
31-Jan-21 14:39 33.516708 -113.142948 278 28366ft 396kts
31-Jan-21 14:40 33.539935 -113.268896 278 30325ft 381kts
31-Jan-21 14:41 33.562306 -113.390944 278 32283ft 370kts
31-Jan-21 14:42 33.583921 -113.509442 278 34220ft 359kts
31-Jan-21 14:43 33.605332 -113.624252 278 36129ft 346kts
31-Jan-21 14:44 33.625706 -113.733996 277 37673ft 342kts
31-Jan-21 14:45 33.646624 -113.847330 277 38219ft 362kts
31-Jan-21 14:46 33.669233 -113.970223 278 38215ft 388kts
31-Jan-21 14:47 33.692896 -114.099600 278 38211ft 405kts
31-Jan-21 14:48 33.717193 -114.233314 278 38208ft 415kts
31-Jan-21 14:49 33.741842 -114.369866 278 38205ft 420kts
31-Jan-21 14:50 33.766451 -114.507122 278 38202ft 422kts
31-Jan-21 14:51 33.779063 -114.646589 271 38199ft 419kts
31-Jan-21 14:52 33.786962 -114.783429 271 38214ft 421kts
31-Jan-21 14:53 33.794918 -114.924062 271 38212ft 421kts
31-Jan-21 14:54 33.802701 -115.064362 270 38209ft 421kts
31-Jan-21 14:55 33.810308 -115.204508 270 38207ft 419kts
31-Jan-21 14:56 33.817708 -115.343771 270 38261ft 416kts
31-Jan-21 14:57 33.832512 -115.481680 283 38317ft 423kts
31-Jan-21 14:58 33.874529 -115.614515 285 38309ft 426kts
31-Jan-21 14:59 33.914080 -115.737669 285 38323ft 427kts
31-Jan-21 15:00 33.957799 -115.874383 285 38322ft 428kts
31-Jan-21 15:01 34.000489 -116.008481 285 38300ft 429kts
31-Jan-21 15:02 34.042936 -116.142404 285 38287ft 428kts
31-Jan-21 15:03 34.085231 -116.276444 285 38272ft 428kts
31-Jan-21 15:04 34.127373 -116.410581 285 38231ft 428kts
31-Jan-21 15:05 34.169399 -116.544954 285 38239ft 427kts
31-Jan-21 15:06 34.208036 -116.669033 284 38252ft 426kts
31-Jan-21 15:07 34.250917 -116.807345 284 38265ft 427kts
31-Jan-21 15:08 34.292424 -116.941836 284 38251ft 428kts
31-Jan-21 15:09 34.333908 -117.076864 284 38222ft 430kts
31-Jan-21 15:10 34.375627 -117.213285 284 38222ft 432kts
31-Jan-21 15:11 34.417109 -117.349556 284 38230ft 433kts
31-Jan-21 15:22 35.106952 -118.715997 302 38243ft 451kts
31-Jan-21 15:23 35.189386 -118.830307 301 38163ft 451kts
31-Jan-21 15:24 35.272102 -118.945395 300 38150ft 453kts
31-Jan-21 15:25 35.355656 -119.062056 300 38150ft 457kts
31-Jan-21 15:26 35.439447 -119.179436 300 38150ft 460kts
31-Jan-21 15:27 35.523540 -119.297650 300 38149ft 461kts
31-Jan-21 15:28 35.607809 -119.416525 300 38159ft 462kts
31-Jan-21 15:29 35.691443 -119.534911 300 38177ft 461kts
31-Jan-21 15:30 35.774161 -119.652408 299 38178ft 462kts
31-Jan-21 15:31 35.857978 -119.771878 299 38189ft 462kts
31-Jan-21 15:32 35.946640 -119.888050 302 38196ft 464kts
31-Jan-21 15:33 36.039041 -119.998814 305 38192ft 464kts
31-Jan-21 15:34 36.124481 -120.100413 304 38172ft 462kts
31-Jan-21 15:35 36.209987 -120.202444 305 37220ft 465kts
31-Jan-21 15:36 36.304417 -120.315461 305 35361ft 469kts
31-Jan-21 15:37 36.398158 -120.428070 305 33500ft 467kts
31-Jan-21 15:38 36.489216 -120.537844 305 31693ft 470kts
31-Jan-21 15:39 36.583651 -120.646937 308 29760ft 448kts
31-Jan-21 15:40 36.669491 -120.742119 307 27769ft 414kts
31-Jan-21 15:41 36.754588 -120.836746 309 24920ft 408kts
31-Jan-21 15:42 36.838006 -120.929251 310 22141ft 391kts
31-Jan-21 15:43 36.914784 -121.014509 310 20492ft 363kts
31-Jan-21 15:44 36.988992 -121.097159 310 18517ft 353kts
31-Jan-21 15:45 37.061411 -121.178031 311 16548ft 347kts
31-Jan-21 15:46 37.131741 -121.256868 311 15215ft 329kts
31-Jan-21 15:47 37.197909 -121.333601 311 13647ft 325kts
31-Jan-21 15:48 37.263375 -121.409773 312 11821ft 312kts
31-Jan-21 15:49 37.323248 -121.479647 314 9982ft 285kts
31-Jan-21 15:51 37.382264 -121.548398 314 8981ft 283kts
31-Jan-21 15:52 37.440522 -121.617407 306 7696ft 281kts
31-Jan-21 15:53 37.485194 -121.693539 301 6973ft 250kts
31-Jan-21 15:54 37.503216 -121.725120 301 6913ft 232kts
31-Jan-21 15:55 37.561096 -121.826479 303 5955ft 214kts
31-Jan-21 15:56 37.600105 -121.882920 310 5267ft 230kts
31-Jan-21 15:57 37.638353 -121.940969 294 4227ft 195kts
31-Jan-21 15:58 37.657959 -121.998994 291 3345ft 159kts
31-Jan-21 15:59 37.675092 -122.050744 294 2696ft 149kts
31-Jan-21 16:00 37.688664 -122.093446 294 1907ft 116kts
31-Jan-21 16:01 37.700413 -122.130224 293 1343ft 108kts
31-Jan-21 16:02 37.712122 -122.165731 293 708ft 107kts
31-Jan-21 16:03 37.723224 -122.199745 292 137ft 102kts
31-Jan-21 16:04 37.729904 -122.219129 46 14ft 6kts
31-Jan-21 16:05 37.730514 -122.216625 73 14ft 7kts
31-Jan-21 16:05 37.730002 -122.214707 131 14ft 8kts
31-Jan-21 16:07 37.728166 -122.211811 112 14ft 9kts
31-Jan-21 16:07 37.728679 -122.210606 34 14ft 0kts
31-Jan-21 16:08 37.728679 -122.210607 34 14ft 0kts
31-Jan-21 16:10 37.728679 -122.210607 34 14ft 0kts
31-Jan-21 16:10 37.728679 -122.210607 34 14ft 0kts
31-Jan-21 16:11 37.728679 -122.210607 34 14ft 0kts
31-Jan-21 16:12 37.728679 -122.210607 34 14ft 0kts

Navigation Log

Ident Type
Flight plan parsing failed, navigation log unavailable